createdAt,value
2018-08-23T00:00:42.710Z,78.30
2018-08-23T00:03:22.266Z,78.50
2018-08-23T00:05:57.278Z,78.60
2018-08-23T00:08:31.517Z,78.80
2018-08-23T00:11:05.830Z,78.40
2018-08-23T00:13:44.969Z,78.50
2018-08-23T00:16:32.365Z,78.80
2018-08-23T00:19:06.517Z,79.00
2018-08-23T00:21:41.456Z,79.30
2018-08-23T00:24:22.595Z,79.90
2018-08-23T00:26:59.480Z,79.80
2018-08-23T00:29:33.905Z,79.70
2018-08-23T00:32:08.554Z,79.80
2018-08-23T00:34:42.693Z,79.80
2018-08-23T00:37:16.946Z,80.00
2018-08-23T00:39:51.218Z,80.50
2018-08-23T00:42:25.491Z,80.90
2018-08-23T00:45:01.039Z,80.80
2018-08-23T00:47:35.250Z,80.90
2018-08-23T00:50:09.583Z,81.90
2018-08-23T00:52:44.993Z,82.40
2018-08-23T00:55:28.640Z,82.70
2018-08-23T00:58:02.768Z,83.10
2018-08-23T01:00:36.983Z,82.70
2018-08-23T01:03:11.243Z,82.80
2018-08-23T01:05:46.106Z,82.70
2018-08-23T01:08:25.873Z,82.90
2018-08-23T01:11:00.128Z,82.90
2018-08-23T01:13:34.689Z,83.60
2018-08-23T01:16:09.014Z,84.20
2018-08-23T01:18:43.434Z,84.10
2018-08-23T01:21:17.622Z,83.70
2018-08-23T01:23:51.918Z,83.70
2018-08-23T01:26:26.235Z,84.00
2018-08-23T01:29:00.507Z,84.60
2018-08-23T01:31:34.843Z,84.50
2018-08-23T01:34:09.151Z,84.60
2018-08-23T01:36:43.521Z,84.90
2018-08-23T01:39:17.835Z,85.20
2018-08-23T01:41:52.206Z,84.90
2018-08-23T01:44:30.825Z,85.30
2018-08-23T01:47:05.195Z,85.60
2018-08-23T01:49:39.483Z,85.50
2018-08-23T01:52:13.695Z,85.70
2018-08-23T01:54:47.998Z,85.80
2018-08-23T01:57:26.578Z,86.70
2018-08-23T02:00:01.048Z,86.90
2018-08-23T02:02:35.306Z,86.60
2018-08-23T02:05:09.695Z,87.00
2018-08-23T02:07:43.978Z,87.10
2018-08-23T02:10:18.289Z,88.00
2018-08-23T02:12:53.854Z,88.50
2018-08-23T02:15:35.768Z,87.90
2018-08-23T02:18:10.053Z,87.80
2018-08-23T02:20:44.233Z,87.80
2018-08-23T02:23:18.489Z,88.40
2018-08-23T02:25:52.865Z,88.40
2018-08-23T02:28:27.122Z,88.40
2018-08-23T02:31:01.399Z,89.00
2018-08-23T02:33:35.822Z,89.20
2018-08-23T02:36:16.831Z,89.20
2018-08-23T02:38:55.467Z,89.60
2018-08-23T02:41:29.895Z,89.10
2018-08-23T02:44:04.215Z,90.00
2018-08-23T02:46:38.519Z,89.60
2018-08-23T02:49:14.779Z,89.40
2018-08-23T02:51:51.455Z,89.40
2018-08-23T02:54:25.646Z,89.80
2018-08-23T02:57:00.629Z,90.00
2018-08-23T02:59:34.877Z,90.00
2018-08-23T03:02:13.255Z,90.10
2018-08-23T03:04:47.458Z,90.20
2018-08-23T03:07:22.682Z,90.50
2018-08-23T03:09:58.934Z,90.70
2018-08-23T03:12:33.086Z,90.80
2018-08-23T03:15:07.363Z,90.70
2018-08-23T03:17:44.971Z,90.40
2018-08-23T03:20:19.194Z,91.10
2018-08-23T03:22:54.218Z,91.30
2018-08-23T03:25:28.562Z,91.00
2018-08-23T03:28:03.026Z,90.80
2018-08-23T03:30:37.396Z,91.20
2018-08-23T03:33:11.558Z,91.10
2018-08-23T03:35:45.909Z,91.20
2018-08-23T03:38:20.330Z,91.10
2018-08-23T03:40:54.610Z,91.20
2018-08-23T03:43:28.892Z,91.80
2018-08-23T03:46:03.215Z,91.80
2018-08-23T03:48:37.409Z,92.00
2018-08-23T03:51:11.794Z,91.70
2018-08-23T03:53:51.497Z,91.60
2018-08-23T03:56:25.633Z,92.00
2018-08-23T03:58:59.931Z,91.80
2018-08-23T04:01:34.109Z,91.80
2018-08-23T04:04:08.382Z,91.80
2018-08-23T04:06:42.566Z,92.00
2018-08-23T04:09:17.017Z,91.60
2018-08-23T04:11:51.262Z,91.90
2018-08-23T04:14:25.554Z,91.90
2018-08-23T04:16:59.823Z,92.10
2018-08-23T04:19:39.510Z,92.00
2018-08-23T04:22:13.813Z,92.60
2018-08-23T04:24:53.766Z,92.60
2018-08-23T04:27:28.002Z,92.40
2018-08-23T04:30:02.281Z,92.20
2018-08-23T04:32:42.801Z,92.20
2018-08-23T04:35:20.307Z,92.10
2018-08-23T04:37:54.614Z,92.20
2018-08-23T04:40:28.842Z,92.70
2018-08-23T04:43:03.202Z,92.60
2018-08-23T04:45:37.522Z,92.70
2018-08-23T04:48:11.840Z,92.60
2018-08-23T04:50:46.134Z,92.90
2018-08-23T04:53:20.469Z,93.30
2018-08-23T04:55:54.874Z,93.30
2018-08-23T04:58:29.220Z,93.00
2018-08-23T05:01:03.557Z,93.00
2018-08-23T05:03:37.758Z,93.00
2018-08-23T05:06:11.998Z,92.90
2018-08-23T05:08:46.391Z,93.00
2018-08-23T05:11:20.809Z,93.00
2018-08-23T05:13:55.221Z,93.10
2018-08-23T05:16:29.394Z,93.70
2018-08-23T05:19:03.698Z,93.70
2018-08-23T05:21:37.970Z,93.80
2018-08-23T05:24:13.588Z,93.90
2018-08-23T05:26:47.906Z,93.80
2018-08-23T05:29:22.186Z,93.90
2018-08-23T05:31:56.306Z,93.80
2018-08-23T05:34:30.719Z,93.90
2018-08-23T05:37:05.916Z,94.00
2018-08-23T05:39:49.150Z,93.90
2018-08-23T05:42:35.393Z,94.00
2018-08-23T05:45:09.718Z,93.90
2018-08-23T05:47:44.149Z,94.30
2018-08-23T05:50:22.767Z,94.50
2018-08-23T05:52:56.889Z,94.50
2018-08-23T05:55:31.230Z,94.40
2018-08-23T05:58:13.837Z,94.40
2018-08-23T06:00:48.103Z,94.20
2018-08-23T06:03:22.286Z,94.20
2018-08-23T06:05:57.074Z,94.30
2018-08-23T06:08:31.427Z,94.40
2018-08-23T06:11:10.014Z,94.30
2018-08-23T06:13:44.299Z,94.20
2018-08-23T06:16:18.595Z,94.10
2018-08-23T06:18:52.915Z,94.10
2018-08-23T06:21:27.175Z,94.10
2018-08-23T06:24:03.731Z,94.10
2018-08-23T06:26:45.068Z,93.90
2018-08-23T06:29:29.877Z,93.90
2018-08-23T06:32:06.667Z,93.90
2018-08-23T06:34:47.013Z,93.80
2018-08-23T06:37:22.304Z,93.70
2018-08-23T06:39:56.672Z,93.70
2018-08-23T06:42:45.176Z,93.90
2018-08-23T06:45:19.355Z,93.80
2018-08-23T06:47:58.031Z,94.20
2018-08-23T06:50:43.194Z,93.70
2018-08-23T06:53:17.394Z,93.70
2018-08-23T06:55:51.708Z,93.30
2018-08-23T06:58:25.993Z,93.30
2018-08-23T07:01:01.659Z,93.10
2018-08-23T07:03:40.302Z,93.00
2018-08-23T07:06:14.574Z,93.10
2018-08-23T07:08:48.795Z,93.10
2018-08-23T07:11:23.010Z,92.70
2018-08-23T07:14:02.637Z,92.70
2018-08-23T07:16:36.865Z,92.40
2018-08-23T07:19:31.345Z,92.20
2018-08-23T07:22:05.674Z,92.00
2018-08-23T07:24:43.570Z,91.40
2018-08-23T07:27:18.817Z,91.00
2018-08-23T07:29:54.873Z,90.90
2018-08-23T07:32:30.123Z,90.70
2018-08-23T07:35:10.670Z,91.00
2018-08-23T07:37:46.441Z,90.70
2018-08-23T07:40:22.805Z,90.30
2018-08-23T07:42:57.068Z,90.10
2018-08-23T07:45:31.365Z,90.20
2018-08-23T07:48:05.730Z,90.00
2018-08-23T07:50:40.042Z,89.10
2018-08-23T07:53:14.510Z,88.50
2018-08-23T07:55:48.679Z,88.10
2018-08-23T07:58:22.953Z,88.30
2018-08-23T08:00:57.239Z,88.40
2018-08-23T08:03:31.415Z,88.10
2018-08-23T08:06:05.714Z,87.50
2018-08-23T08:08:42.124Z,87.60
2018-08-23T08:11:16.558Z,87.50
2018-08-23T08:13:56.130Z,87.30
2018-08-23T08:16:32.453Z,88.10
2018-08-23T08:19:07.098Z,87.60
2018-08-23T08:21:41.476Z,88.00
2018-08-23T08:24:15.674Z,87.80
2018-08-23T08:26:49.982Z,88.40
2018-08-23T08:29:29.850Z,88.60
2018-08-23T08:32:04.158Z,88.60
2018-08-23T08:34:43.715Z,88.80
2018-08-23T08:37:17.963Z,88.60
2018-08-23T08:39:52.300Z,88.40
2018-08-23T08:42:32.138Z,88.50
2018-08-23T08:45:10.240Z,88.20
2018-08-23T08:47:45.692Z,88.60
2018-08-23T08:50:20.060Z,87.60
2018-08-23T08:52:54.413Z,87.10
2018-08-23T08:55:28.698Z,87.10
2018-08-23T08:58:03.134Z,86.80
2018-08-23T09:00:49.713Z,86.00
2018-08-23T09:03:24.300Z,85.40
2018-08-23T09:05:58.568Z,84.60
2018-08-23T09:08:33.127Z,84.40
2018-08-23T09:11:07.534Z,85.30
2018-08-23T09:13:47.081Z,85.20
2018-08-23T09:16:21.750Z,84.40
2018-08-23T09:19:00.334Z,83.50
2018-08-23T09:21:34.503Z,82.90
2018-08-23T09:24:24.942Z,83.50
2018-08-23T09:26:59.119Z,82.30
2018-08-23T09:29:35.473Z,80.80
2018-08-23T09:32:20.860Z,80.30
2018-08-23T09:34:59.250Z,80.60
2018-08-23T09:37:36.431Z,80.00
2018-08-23T09:40:11.244Z,80.70
2018-08-23T09:42:45.473Z,80.20
2018-08-23T09:45:19.819Z,80.40
2018-08-23T09:47:54.228Z,80.40
2018-08-23T09:50:30.655Z,79.00
2018-08-23T09:53:37.545Z,77.50
2018-08-23T09:56:16.447Z,78.50
2018-08-23T09:58:51.883Z,78.40
2018-08-23T10:01:31.562Z,77.30
2018-08-23T10:04:11.255Z,77.30
2018-08-23T10:07:22.995Z,77.40
2018-08-23T10:10:02.791Z,77.70
2018-08-23T10:12:42.330Z,77.50
2018-08-23T10:15:22.995Z,76.80
2018-08-23T10:18:02.558Z,76.50
2018-08-23T10:20:43.710Z,76.10
2018-08-23T10:23:21.860Z,74.50
2018-08-23T10:25:57.306Z,75.40
2018-08-23T10:28:37.022Z,75.80
2018-08-23T10:31:11.221Z,75.90
2018-08-23T10:33:45.474Z,75.60
2018-08-23T10:36:19.990Z,74.20
2018-08-23T10:38:54.206Z,72.50
2018-08-23T10:41:28.495Z,72.90
2018-08-23T10:44:02.671Z,73.40
2018-08-23T10:46:42.349Z,73.10
2018-08-23T10:49:16.547Z,73.70
2018-08-23T10:51:50.862Z,72.80
2018-08-23T10:54:25.174Z,74.10
2018-08-23T10:56:59.667Z,73.30
2018-08-23T10:59:33.882Z,71.70
2018-08-23T11:02:08.328Z,69.80
2018-08-23T11:04:42.723Z,68.00
2018-08-23T11:07:17.014Z,67.80
2018-08-23T11:09:56.803Z,66.30
2018-08-23T11:12:36.361Z,64.60
2018-08-23T11:15:15.886Z,64.40
2018-08-23T11:17:55.339Z,64.40
2018-08-23T11:20:30.998Z,64.20
2018-08-23T11:23:05.404Z,64.40
2018-08-23T11:25:39.693Z,64.30
2018-08-23T11:28:19.329Z,64.00
2018-08-23T11:30:54.162Z,63.50
2018-08-23T11:33:28.430Z,64.10
2018-08-23T11:36:02.697Z,64.20
2018-08-23T11:38:37.027Z,61.90
2018-08-23T11:41:11.443Z,62.10
2018-08-23T11:43:45.635Z,60.00
2018-08-23T11:46:21.308Z,61.30
2018-08-23T11:48:55.546Z,61.00
2018-08-23T11:51:29.865Z,59.70
2018-08-23T11:54:04.018Z,60.00
2018-08-23T11:56:38.406Z,60.50
2018-08-23T11:59:12.908Z,60.30
2018-08-23T12:01:47.123Z,59.00
2018-08-23T12:04:21.430Z,59.40
2018-08-23T12:06:56.489Z,59.40
2018-08-23T12:09:31.637Z,58.80
2018-08-23T12:12:05.835Z,58.50
2018-08-23T12:14:40.056Z,58.30
2018-08-23T12:17:14.414Z,59.90
2018-08-23T12:19:48.595Z,60.00
2018-08-23T12:22:27.035Z,61.30
2018-08-23T12:25:01.241Z,59.80
2018-08-23T12:27:36.484Z,58.80
2018-08-23T12:30:10.802Z,58.50
2018-08-23T12:32:45.132Z,58.20
2018-08-23T12:35:19.394Z,57.80
2018-08-23T12:38:00.863Z,57.70
2018-08-23T12:40:40.809Z,57.50
2018-08-23T12:43:14.959Z,56.30
2018-08-23T12:45:49.303Z,56.40
2018-08-23T12:48:23.650Z,54.90
2018-08-23T12:50:58.174Z,54.60
2018-08-23T12:53:32.479Z,55.30
2018-08-23T12:56:06.842Z,54.80
2018-08-23T12:58:41.196Z,54.30
2018-08-23T13:01:15.446Z,54.30
2018-08-23T13:03:49.725Z,53.20
2018-08-23T13:06:23.934Z,53.70
2018-08-23T13:08:58.098Z,53.20
2018-08-23T13:11:32.485Z,53.80
2018-08-23T13:14:06.902Z,53.90
2018-08-23T13:16:41.170Z,53.30
2018-08-23T13:19:15.682Z,52.80
2018-08-23T13:21:55.047Z,52.90
2018-08-23T13:24:29.569Z,53.20
2018-08-23T13:27:03.850Z,52.30
2018-08-23T13:29:38.268Z,52.20
2018-08-23T13:32:12.523Z,52.30
2018-08-23T13:34:46.745Z,52.90
2018-08-23T13:37:21.041Z,52.60
2018-08-23T13:39:55.803Z,51.90
2018-08-23T13:42:30.084Z,52.00
2018-08-23T13:45:04.319Z,50.90
2018-08-23T13:47:38.818Z,50.60
2018-08-23T13:50:13.082Z,50.90
2018-08-23T13:52:47.481Z,51.10
2018-08-23T13:55:21.692Z,51.50
2018-08-23T13:57:55.987Z,51.30
2018-08-23T14:00:35.578Z,51.20
2018-08-23T14:03:10.571Z,51.40
2018-08-23T14:05:44.706Z,51.80
2018-08-23T14:08:19.108Z,50.80
2018-08-23T14:10:53.350Z,51.40
2018-08-23T14:13:27.473Z,51.20
2018-08-23T14:16:04.101Z,51.00
2018-08-23T14:18:38.505Z,51.00
2018-08-23T14:21:12.826Z,50.90
2018-08-23T14:23:47.158Z,51.20
2018-08-23T14:26:21.445Z,50.30
2018-08-23T14:28:55.842Z,49.90
2018-08-23T14:31:30.137Z,50.90
2018-08-23T14:34:04.541Z,51.30
2018-08-23T14:36:38.797Z,51.80
2018-08-23T14:39:13.079Z,51.40
2018-08-23T14:41:47.367Z,50.80
2018-08-23T14:44:21.720Z,50.60
2018-08-23T14:47:01.279Z,50.60
2018-08-23T14:49:36.059Z,50.80
2018-08-23T14:52:10.427Z,50.80
2018-08-23T14:54:44.615Z,50.10
2018-08-23T14:57:24.338Z,49.70
2018-08-23T14:59:58.546Z,50.40
2018-08-23T15:02:32.878Z,51.10
2018-08-23T15:05:07.266Z,50.10
2018-08-23T15:07:41.529Z,50.20
2018-08-23T15:10:15.899Z,50.20
2018-08-23T15:12:50.132Z,50.60
2018-08-23T15:15:29.890Z,51.00
2018-08-23T15:18:04.095Z,51.60
2018-08-23T15:20:38.475Z,52.30
2018-08-23T15:23:12.830Z,50.80
2018-08-23T15:25:47.170Z,51.10
2018-08-23T15:28:21.578Z,51.20
2018-08-23T15:30:55.907Z,50.90
2018-08-23T15:33:30.046Z,51.10
2018-08-23T15:36:04.277Z,51.20
2018-08-23T15:38:38.574Z,52.10
2018-08-23T15:41:12.759Z,52.10
2018-08-23T15:43:47.056Z,51.90
2018-08-23T15:46:21.198Z,51.30
2018-08-23T15:48:55.667Z,51.20
2018-08-23T15:51:29.960Z,50.80
2018-08-23T15:54:04.161Z,51.30
2018-08-23T15:56:39.059Z,52.30
2018-08-23T15:59:13.282Z,51.50
2018-08-23T16:01:47.542Z,51.50
2018-08-23T16:04:21.927Z,51.10
2018-08-23T16:06:56.190Z,51.80
2018-08-23T16:09:30.470Z,52.10
2018-08-23T16:12:08.359Z,50.90
2018-08-23T16:14:42.912Z,50.90
2018-08-23T16:17:22.426Z,51.00
2018-08-23T16:20:02.067Z,50.80
2018-08-23T16:22:36.438Z,51.80
2018-08-23T16:25:10.886Z,52.40
2018-08-23T16:27:45.263Z,53.10
2018-08-23T16:30:19.726Z,52.50
2018-08-23T16:32:54.060Z,52.20
2018-08-23T16:35:28.381Z,52.20
2018-08-23T16:38:02.962Z,52.60
2018-08-23T16:40:37.303Z,52.20
2018-08-23T16:43:11.546Z,52.10
2018-08-23T16:45:45.841Z,52.20
2018-08-23T16:48:20.139Z,52.30
2018-08-23T16:50:54.511Z,52.60
2018-08-23T16:53:28.939Z,52.50
2018-08-23T16:56:03.345Z,52.80
2018-08-23T16:58:37.550Z,52.80
2018-08-23T17:01:11.768Z,52.60
2018-08-23T17:03:50.267Z,53.20
2018-08-23T17:06:25.922Z,53.00
2018-08-23T17:09:00.123Z,53.00
2018-08-23T17:11:34.309Z,53.60
2018-08-23T17:14:08.578Z,53.60
2018-08-23T17:16:48.247Z,53.60
2018-08-23T17:19:22.520Z,53.70
2018-08-23T17:21:56.828Z,53.50
2018-08-23T17:24:31.269Z,54.30
2018-08-23T17:27:05.510Z,54.20
2018-08-23T17:29:39.790Z,54.20
2018-08-23T17:32:14.074Z,54.10
2018-08-23T17:34:48.303Z,54.60
2018-08-23T17:37:22.582Z,54.90
2018-08-23T17:39:56.828Z,55.00
2018-08-23T17:42:36.670Z,55.10
2018-08-23T17:45:11.322Z,55.30
2018-08-23T17:47:45.642Z,55.90
2018-08-23T17:50:20.019Z,56.00
2018-08-23T17:52:54.340Z,56.30
2018-08-23T17:55:28.648Z,56.30
2018-08-23T17:58:02.829Z,56.30
2018-08-23T18:00:37.143Z,56.30
2018-08-23T18:03:11.385Z,56.70
2018-08-23T18:05:45.718Z,56.80
2018-08-23T18:08:20.122Z,56.90
2018-08-23T18:10:54.289Z,56.90
2018-08-23T18:13:28.751Z,57.60
2018-08-23T18:16:08.311Z,58.50
2018-08-23T18:18:42.678Z,59.10
2018-08-23T18:21:16.884Z,59.40
2018-08-23T18:23:51.163Z,60.20
2018-08-23T18:26:25.415Z,60.80
2018-08-23T18:28:59.806Z,60.70
2018-08-23T18:31:35.002Z,61.30
2018-08-23T18:34:09.466Z,61.80
2018-08-23T18:36:43.775Z,62.20
2018-08-23T18:39:17.914Z,63.10
2018-08-23T18:41:52.157Z,63.10
2018-08-23T18:44:26.394Z,63.40
2018-08-23T18:47:00.995Z,63.50
2018-08-23T18:49:35.306Z,63.90
2018-08-23T18:52:09.650Z,63.80
2018-08-23T18:54:43.982Z,64.00
2018-08-23T18:57:18.395Z,64.30
2018-08-23T18:59:52.787Z,64.70
2018-08-23T19:02:26.899Z,64.70
2018-08-23T19:05:01.211Z,65.00
2018-08-23T19:07:40.303Z,65.30
2018-08-23T19:10:14.642Z,65.70
2018-08-23T19:12:48.861Z,65.60
2018-08-23T19:15:28.517Z,66.40
2018-08-23T19:18:02.702Z,66.70
2018-08-23T19:20:37.028Z,66.70
2018-08-23T19:23:11.327Z,67.80
2018-08-23T19:25:45.630Z,67.20
2018-08-23T19:28:19.901Z,68.10
2018-08-23T19:30:54.226Z,68.90
2018-08-23T19:33:28.507Z,69.20
2018-08-23T19:36:02.634Z,70.00
2018-08-23T19:38:37.029Z,69.90
2018-08-23T19:41:11.565Z,70.30
2018-08-23T19:43:46.021Z,71.00
2018-08-23T19:46:25.690Z,70.90
2018-08-23T19:49:05.283Z,71.20
2018-08-23T19:51:39.499Z,71.30
2018-08-23T19:54:13.814Z,71.40
2018-08-23T19:56:48.087Z,72.60
2018-08-23T19:59:22.563Z,71.70
2018-08-23T20:01:56.974Z,72.20
2018-08-23T20:04:31.442Z,72.50
2018-08-23T20:07:05.927Z,73.70
2018-08-23T20:09:40.390Z,72.40
2018-08-23T20:12:14.562Z,73.10
2018-08-23T20:14:48.897Z,73.30
2018-08-23T20:17:23.194Z,74.00
2018-08-23T20:19:57.458Z,74.70
2018-08-23T20:22:31.909Z,74.60
2018-08-23T20:25:06.147Z,75.00
2018-08-23T20:27:40.491Z,75.40
2018-08-23T20:30:14.806Z,75.50
2018-08-23T20:32:49.173Z,75.20
2018-08-23T20:35:23.668Z,76.20
2018-08-23T20:37:57.825Z,76.00
2018-08-23T20:40:32.142Z,76.30
2018-08-23T20:43:06.403Z,76.10
2018-08-23T20:45:40.683Z,76.00
2018-08-23T20:48:15.910Z,76.60
2018-08-23T20:50:50.320Z,76.90
2018-08-23T20:53:24.500Z,77.10
2018-08-23T20:55:58.763Z,77.10
2018-08-23T20:58:33.186Z,77.60
2018-08-23T21:01:07.523Z,78.10
2018-08-23T21:03:41.928Z,78.40
2018-08-23T21:06:16.191Z,78.30
2018-08-23T21:08:50.451Z,79.00
2018-08-23T21:11:24.894Z,79.00
2018-08-23T21:13:59.214Z,79.00
2018-08-23T21:16:33.627Z,79.30
2018-08-23T21:19:08.190Z,79.40
2018-08-23T21:21:42.319Z,79.00
2018-08-23T21:24:16.578Z,78.40
2018-08-23T21:26:50.938Z,78.20
2018-08-23T21:29:25.232Z,78.20
2018-08-23T21:31:59.481Z,78.10
2018-08-23T21:34:33.798Z,77.90
2018-08-23T21:37:08.142Z,78.00
2018-08-23T21:39:42.538Z,77.90
2018-08-23T21:42:16.867Z,78.00
2018-08-23T21:44:51.211Z,78.20
2018-08-23T21:47:25.478Z,78.20
2018-08-23T21:49:59.837Z,78.30
2018-08-23T21:52:34.318Z,78.30
2018-08-23T21:55:08.790Z,78.70
2018-08-23T21:57:43.119Z,78.50
2018-08-23T22:00:17.642Z,78.30
2018-08-23T22:02:51.930Z,78.40
2018-08-23T22:05:26.129Z,78.40
2018-08-23T22:08:00.443Z,78.00
2018-08-23T22:10:34.773Z,78.40
2018-08-23T22:13:09.123Z,78.90
2018-08-23T22:15:46.348Z,79.80
2018-08-23T22:18:20.610Z,79.60
2018-08-23T22:20:54.999Z,79.20
2018-08-23T22:23:29.378Z,79.00
2018-08-23T22:26:03.726Z,78.70
2018-08-23T22:28:37.997Z,78.40
2018-08-23T22:31:12.279Z,79.10
2018-08-23T22:33:46.563Z,79.20
2018-08-23T22:36:20.874Z,79.20
2018-08-23T22:38:55.001Z,79.10
2018-08-23T22:41:29.207Z,79.40
2018-08-23T22:44:03.389Z,79.20
2018-08-23T22:46:37.604Z,79.40
2018-08-23T22:49:11.970Z,79.80
2018-08-23T22:51:46.151Z,80.20
2018-08-23T22:54:20.471Z,80.10
2018-08-23T22:56:54.710Z,80.00
2018-08-23T22:59:29.167Z,80.00
2018-08-23T23:02:03.422Z,80.20
2018-08-23T23:04:37.658Z,80.30
2018-08-23T23:07:12.015Z,80.20
2018-08-23T23:09:46.278Z,80.20
2018-08-23T23:12:20.595Z,80.10
2018-08-23T23:14:55.070Z,80.20
2018-08-23T23:17:29.301Z,80.10
2018-08-23T23:20:03.654Z,80.20
2018-08-23T23:22:37.982Z,80.30
2018-08-23T23:25:12.347Z,80.30
2018-08-23T23:27:46.752Z,81.50
2018-08-23T23:30:21.179Z,81.30
2018-08-23T23:32:55.558Z,81.20
2018-08-23T23:35:29.785Z,81.10
2018-08-23T23:38:04.205Z,81.00
2018-08-23T23:40:38.441Z,81.40
2018-08-23T23:43:12.715Z,81.90
2018-08-23T23:45:47.226Z,82.00
2018-08-23T23:48:21.629Z,81.90
2018-08-23T23:50:55.844Z,82.10
2018-08-23T23:53:30.090Z,82.10
2018-08-23T23:56:04.501Z,82.40
2018-08-23T23:58:38.786Z,82.70
